Time;durP1;ratioP1;P1;durP2;ratioP2;P2;SDS_P1;SDS_P2;PMS_P1;PMS_P2;Temp;Humidity;BMP_temperature;BMP_pressure;BME280_temperature;BME280_humidity;BME280_pressure;Samples;Min_cycle;Max_cycle;Signal;HPM_P1;HPM_P2
2022/09/16 00:00:21;;;;;;;8.75;4.97;;;;;;;14.28;76.33;97504.47;5031772;28;20480;-70
2022/09/16 00:02:46;;;;;;;7.28;4.80;;;;;;;14.28;76.07;97509.97;5028734;28;20532;-69
2022/09/16 00:05:12;;;;;;;10.30;5.28;;;;;;;14.29;76.44;97508.81;5011086;28;20584;-69
2022/09/16 00:07:38;;;;;;;8.43;5.90;;;;;;;14.31;76.14;97521.47;5011669;28;20556;-69
2022/09/16 00:10:04;;;;;;;7.22;4.85;;;;;;;14.28;76.17;97512.72;5028674;28;20489;-69
2022/09/16 00:12:30;;;;;;;7.07;4.97;;;;;;;14.32;75.66;97509.28;5031244;28;20029;-69
2022/09/16 00:14:56;;;;;;;8.45;4.97;;;;;;;14.32;75.92;97510.06;5030673;28;20030;-69
2022/09/16 00:17:21;;;;;;;8.50;5.53;;;;;;;14.32;75.85;97506.53;5031588;28;20030;-69
2022/09/16 00:19:48;;;;;;;9.07;5.18;;;;;;;14.31;75.92;97522.25;5031354;28;20034;-70
2022/09/16 00:22:13;;;;;;;7.95;5.05;;;;;;;14.32;75.74;97532.13;5031308;28;20029;-70
2022/09/16 00:24:39;;;;;;;7.22;5.07;;;;;;;14.31;75.82;97524.22;5030266;28;20036;-69
2022/09/16 00:27:04;;;;;;;8.52;5.18;;;;;;;14.31;75.64;97525.00;5030760;28;20425;-69
2022/09/16 00:29:30;;;;;;;7.43;5.22;;;;;;;14.31;75.70;97530.53;5019100;28;20087;-70
2022/09/16 00:31:55;;;;;;;6.40;4.95;;;;;;;14.28;75.66;97545.81;5011578;28;20293;-69
2022/09/16 00:34:21;;;;;;;8.85;4.82;;;;;;;14.27;75.93;97546.16;5010787;28;20042;-69
2022/09/16 00:36:46;;;;;;;7.75;5.15;;;;;;;14.25;75.81;97537.44;5010553;28;20518;-69
2022/09/16 00:39:12;;;;;;;6.93;4.55;;;;;;;14.26;75.71;97539.84;5011123;28;20030;-70
2022/09/16 00:41:38;;;;;;;8.15;4.75;;;;;;;14.27;75.65;97540.63;5011195;28;20501;-69
2022/09/16 00:44:06;;;;;;;7.25;4.78;;;;;;;14.23;75.73;97546.03;5010801;28;20062;-69
2022/09/16 00:46:44;;;;;;;6.00;4.60;;;;;;;14.20;75.63;97532.16;5014731;28;20332;-69
2022/09/16 00:49:17;;;;;;;6.57;4.55;;;;;;;14.17;75.57;97541.09;5009895;28;20112;-70
2022/09/16 00:51:46;;;;;;;9.77;4.90;;;;;;;14.13;75.64;97538.22;5011435;28;20052;-69
2022/09/16 00:54:14;;;;;;;6.57;4.70;;;;;;;14.11;75.41;97535.00;5030637;28;20032;-69
2022/09/16 00:56:43;;;;;;;7.18;4.72;;;;;;;14.09;75.29;97540.03;5030466;28;20069;-69
2022/09/16 00:59:15;;;;;;;7.03;4.32;;;;;;;14.08;75.52;97538.44;5017818;28;20064;-69
2022/09/16 01:01:43;;;;;;;6.50;4.88;;;;;;;14.05;75.31;97536.38;5008183;28;20040;-69
2022/09/16 01:04:16;;;;;;;6.40;4.13;;;;;;;14.05;75.35;97544.66;5011163;28;20040;-69
2022/09/16 01:06:41;;;;;;;7.07;4.50;;;;;;;14.03;75.19;97544.97;5007489;28;20054;-70
2022/09/16 01:09:07;;;;;;;6.57;4.10;;;;;;;14.01;75.48;97546.47;5018025;28;20509;-69
2022/09/16 01:11:32;;;;;;;5.15;3.80;;;;;;;14.02;75.26;97550.84;5007456;28;20038;-69
2022/09/16 01:14:52;;;;;;;5.45;3.75;;;;;;;14.03;75.20;97552.47;5010624;28;20034;-68
2022/09/16 01:16:58;;;;;;;5.97;4.35;;;;;;;14.03;75.23;97533.94;5008689;28;20029;-69
2022/09/16 01:19:41;;;;;;;4.95;3.55;;;;;;;14.03;75.06;97546.94;5010857;28;20026;-69
2022/09/16 01:22:19;;;;;;;5.85;3.70;;;;;;;14.01;75.10;97554.75;5005328;28;20086;-70
2022/09/16 01:25:00;;;;;;;5.25;3.63;;;;;;;13.98;75.22;97550.72;5007111;28;20120;-69
2022/09/16 01:27:44;;;;;;;4.78;3.40;;;;;;;13.99;75.26;97546.81;5009229;28;20072;-69
2022/09/16 01:30:27;;;;;;;5.00;3.60;;;;;;;14.01;75.19;97543.72;5016374;28;20026;-69
2022/09/16 01:33:05;;;;;;;4.13;3.30;;;;;;;14.00;74.86;97545.66;5007068;28;20120;-69
2022/09/16 01:35:49;;;;;;;4.40;3.28;;;;;;;14.01;74.76;97550.03;5007167;28;20057;-69
2022/09/16 01:38:25;;;;;;;6.05;3.30;;;;;;;14.02;74.68;97548.09;5007147;28;20073;-69
2022/09/16 01:41:06;;;;;;;4.93;3.20;;;;;;;14.00;74.69;97551.19;5016854;28;20025;-69
2022/09/16 01:43:53;;;;;;;4.78;3.25;;;;;;;13.99;74.48;97544.88;5020411;28;20485;-69
2022/09/16 01:46:34;;;;;;;5.78;3.20;;;;;;;13.98;74.45;97547.94;5026294;28;20026;-69
2022/09/16 01:49:08;;;;;;;5.28;3.42;;;;;;;13.98;74.91;97540.50;5022016;28;20493;-69
2022/09/16 01:51:42;;;;;;;6.07;3.45;;;;;;;13.98;74.60;97545.19;5017149;28;20026;-69
2022/09/16 01:54:14;;;;;;;5.15;3.17;;;;;;;13.98;74.38;97540.50;5009595;28;20629;-69
2022/09/16 01:57:04;;;;;;;6.22;3.30;;;;;;;13.96;74.22;97541.97;5009670;28;20033;-69
2022/09/16 01:59:51;;;;;;;6.43;3.83;;;;;;;13.96;74.32;97534.53;5013118;28;20034;-69
2022/09/16 02:02:33;;;;;;;8.50;3.45;;;;;;;13.93;74.33;97539.91;5014847;28;20525;-69
2022/09/16 02:05:03;;;;;;;4.82;3.53;;;;;;;13.91;74.21;97537.50;5011150;28;20137;-68
2022/09/16 02:07:34;;;;;;;4.72;3.03;;;;;;;13.88;74.14;97529.91;5016772;28;20046;-69
2022/09/16 02:10:30;;;;;;;6.03;3.00;;;;;;;13.84;74.08;97529.78;5018313;28;20033;-69
2022/09/16 02:13:03;;;;;;;4.85;3.50;;;;;;;13.86;74.34;97537.72;5015536;28;20057;-69
2022/09/16 02:15:31;;;;;;;8.18;3.50;;;;;;;13.84;73.96;97540.81;5015574;28;20038;-68
2022/09/16 02:18:03;;;;;;;7.07;3.80;;;;;;;13.83;74.26;97539.22;5016287;28;20038;-69
2022/09/16 02:20:31;;;;;;;7.07;3.60;;;;;;;13.82;74.43;97547.81;5016237;28;20496;-68
2022/09/16 02:23:14;;;;;;;7.82;3.58;;;;;;;13.81;74.23;97547.00;5023223;28;20501;-67
2022/09/16 02:25:43;;;;;;;6.15;4.07;;;;;;;13.83;74.34;97549.41;5035374;28;20029;-68
2022/09/16 02:28:16;;;;;;;8.70;4.37;;;;;;;13.83;74.30;97546.66;5036083;28;20087;-68
2022/09/16 02:30:46;;;;;;;8.05;3.75;;;;;;;13.83;74.18;97557.69;5035956;28;20275;-68
2022/09/16 02:33:15;;;;;;;6.13;3.85;;;;;;;13.83;74.16;97558.50;5031389;28;20373;-68
2022/09/16 02:35:46;;;;;;;5.20;3.95;;;;;;;13.82;74.12;97556.88;5035218;28;20477;-67
2022/09/16 02:38:18;;;;;;;6.40;3.83;;;;;;;13.83;74.14;97558.50;5035490;28;20023;-68
2022/09/16 02:40:51;;;;;;;6.30;3.50;;;;;;;13.81;74.38;97562.72;5034628;28;20108;-67
2022/09/16 02:43:17;;;;;;;5.88;3.28;;;;;;;13.80;74.19;97559.19;5035897;28;20527;-68
2022/09/16 02:46:08;;;;;;;7.93;3.83;;;;;;;13.80;74.02;97569.38;5022898;28;20076;-68
2022/09/16 02:48:53;;;;;;;6.07;3.80;;;;;;;13.76;74.30;97568.44;5016121;28;20033;-68
2022/09/16 02:51:22;;;;;;;4.97;3.58;;;;;;;13.74;74.13;97573.50;5015635;28;20021;-68
2022/09/16 02:54:20;;;;;;;5.38;3.70;;;;;;;13.66;74.23;97575.97;5015659;28;20033;-68
2022/09/16 02:56:45;;;;;;;5.72;3.17;;;;;;;13.60;73.86;97576.53;5015803;28;20044;-68
2022/09/16 02:59:12;;;;;;;6.85;3.53;;;;;;;13.56;73.88;97568.16;5016135;28;20026;-67
2022/09/16 03:01:40;;;;;;;4.22;3.25;;;;;;;13.52;73.81;97578.22;5016306;28;20014;-68
2022/09/16 03:04:09;;;;;;;4.30;2.85;;;;;;;13.46;73.92;97569.34;5014667;28;20113;-68
2022/09/16 03:06:35;;;;;;;4.63;2.95;;;;;;;13.43;73.58;97570.06;5015832;28;20060;-68
2022/09/16 03:09:03;;;;;;;5.95;3.38;;;;;;;13.39;73.48;97564.38;5024085;28;20047;-68
2022/09/16 03:11:56;;;;;;;6.43;3.10;;;;;;;13.37;73.73;97566.66;5030656;28;20030;-68
2022/09/16 03:14:45;;;;;;;4.93;2.95;;;;;;;13.35;73.84;97573.66;5013295;28;20045;-68
2022/09/16 03:17:35;;;;;;;5.65;3.30;;;;;;;13.33;73.53;97568.47;5012971;28;20037;-68
2022/09/16 03:20:20;;;;;;;6.60;3.30;;;;;;;13.26;73.66;97565.44;5022855;28;20045;-68
2022/09/16 03:23:12;;;;;;;4.03;3.10;;;;;;;13.22;73.58;97565.31;5032217;28;20021;-68
2022/09/16 03:25:49;;;;;;;5.97;3.22;;;;;;;13.19;73.33;97563.22;5032059;28;20030;-68
2022/09/16 03:28:23;;;;;;;4.82;3.20;;;;;;;13.18;73.86;97566.34;5031946;28;20040;-68
2022/09/16 03:31:10;;;;;;;6.03;3.25;;;;;;;13.14;73.52;97568.16;5032445;28;20040;-68
2022/09/16 03:33:46;;;;;;;5.57;3.13;;;;;;;13.14;73.32;97566.19;5033208;28;20025;-68
2022/09/16 03:36:17;;;;;;;5.30;3.17;;;;;;;13.10;73.28;97563.31;5024543;28;20033;-68
2022/09/16 03:38:43;;;;;;;6.47;2.88;;;;;;;13.09;73.48;97564.44;5012511;28;20038;-68
2022/09/16 03:41:10;;;;;;;8.63;3.22;;;;;;;13.04;72.98;97566.59;5012878;28;20033;-68
2022/09/16 03:43:35;;;;;;;7.15;2.95;;;;;;;13.00;73.21;97562.91;5012882;28;20113;-68
2022/09/16 03:46:01;;;;;;;5.68;3.00;;;;;;;12.95;73.09;97556.44;5011883;28;20104;-68
2022/09/16 03:48:26;;;;;;;4.03;2.38;;;;;;;12.92;73.07;97550.78;5012237;28;20091;-68
2022/09/16 03:50:52;;;;;;;4.85;2.50;;;;;;;12.90;73.39;97553.06;5012602;28;20041;-68
2022/09/16 03:53:18;;;;;;;5.93;2.65;;;;;;;12.89;73.12;97551.47;5012819;28;20026;-68
2022/09/16 03:55:43;;;;;;;7.10;3.35;;;;;;;12.86;73.39;97547.44;5011819;28;20104;-68
2022/09/16 03:58:09;;;;;;;5.65;3.40;;;;;;;12.85;73.09;97545.81;5012411;28;20465;-68
2022/09/16 04:00:34;;;;;;;4.72;3.10;;;;;;;12.83;73.06;97544.56;5012261;28;20026;-67
2022/09/16 04:03:00;;;;;;;5.72;3.28;;;;;;;12.83;73.23;97545.34;5012715;28;20033;-67
2022/09/16 04:05:26;;;;;;;7.25;3.97;;;;;;;12.86;73.32;97543.88;5011751;28;20470;-68
2022/09/16 04:07:51;;;;;;;6.50;4.07;;;;;;;12.87;73.55;97545.47;5027863;28;20045;-68
2022/09/16 04:10:17;;;;;;;4.38;3.50;;;;;;;12.86;73.37;97536.44;5012625;28;20137;-68
2022/09/16 04:12:42;;;;;;;5.13;4.00;;;;;;;12.86;73.30;97535.59;5016084;28;20037;-68
2022/09/16 04:15:08;;;;;;;8.77;4.60;;;;;;;12.85;73.46;97534.00;5009150;28;20029;-68
2022/09/16 04:17:34;;;;;;;7.68;4.28;;;;;;;12.85;73.59;97531.25;5012324;28;20033;-68
2022/09/16 04:20:00;;;;;;;6.35;4.30;;;;;;;12.84;73.51;97549.72;5012142;28;20036;-68
2022/09/16 04:22:29;;;;;;;6.75;4.15;;;;;;;12.83;73.59;97553.59;5020532;28;20027;-68
2022/09/16 04:24:55;;;;;;;7.85;4.60;;;;;;;12.86;73.78;97549.38;5030492;28;20014;-68
2022/09/16 04:27:21;;;;;;;5.47;3.97;;;;;;;12.87;73.90;97542.72;5031625;28;20034;-68
2022/09/16 04:29:46;;;;;;;5.70;4.10;;;;;;;12.91;73.91;97543.66;5031586;28;20037;-68
2022/09/16 04:32:12;;;;;;;7.38;4.60;;;;;;;12.92;73.75;97548.84;5031550;28;20389;-68
2022/09/16 04:34:37;;;;;;;9.00;4.72;;;;;;;12.94;73.83;97554.00;5031305;28;20466;-68
2022/09/16 04:37:03;;;;;;;6.30;3.90;;;;;;;12.94;73.94;97543.00;5031195;28;20504;-68
2022/09/16 04:39:28;;;;;;;8.07;4.30;;;;;;;12.94;73.82;97552.09;5031069;28;20025;-68
2022/09/16 04:41:54;;;;;;;8.25;4.43;;;;;;;12.93;73.75;97547.72;5031491;28;20056;-68
2022/09/16 04:44:19;;;;;;;6.95;4.50;;;;;;;12.93;74.10;97547.72;5031089;28;20029;-68
2022/09/16 04:46:44;;;;;;;7.45;4.88;;;;;;;12.91;73.85;97551.94;5030882;28;20428;-68
2022/09/16 04:49:11;;;;;;;6.93;4.47;;;;;;;12.89;73.91;97543.19;5031205;28;20032;-67
2022/09/16 04:51:37;;;;;;;8.30;5.30;;;;;;;12.87;74.13;97542.72;5031221;28;20029;-68
2022/09/16 04:54:02;;;;;;;8.25;5.13;;;;;;;12.84;73.92;97535.16;5031066;28;20078;-68
2022/09/16 04:56:30;;;;;;;7.57;5.00;;;;;;;12.83;73.93;97526.09;5031044;28;20385;-68
2022/09/16 04:58:59;;;;;;;9.13;6.20;;;;;;;12.82;74.04;97531.94;5030641;28;20059;-68
2022/09/16 05:01:28;;;;;;;9.60;5.50;;;;;;;12.79;74.09;97525.13;5031144;28;20030;-68
2022/09/16 05:03:56;;;;;;;8.85;5.43;;;;;;;12.81;74.43;97531.13;5030718;28;20280;-68
2022/09/16 05:06:28;;;;;;;11.88;5.03;;;;;;;12.83;74.19;97542.59;5029746;28;20111;-68
2022/09/16 05:08:55;;;;;;;9.50;5.38;;;;;;;12.83;74.15;97548.09;5021572;28;20038;-68
2022/09/16 05:11:23;;;;;;;8.82;5.65;;;;;;;12.80;74.03;97546.03;5011002;28;20026;-68
2022/09/16 05:13:48;;;;;;;10.48;5.65;;;;;;;12.79;74.21;97553.47;5010897;28;20025;-68
2022/09/16 05:16:16;;;;;;;8.23;5.60;;;;;;;12.77;74.31;97553.00;5010313;28;20026;-68
2022/09/16 05:18:44;;;;;;;7.10;4.97;;;;;;;12.76;74.09;97551.38;5010844;28;20482;-68
2022/09/16 05:21:12;;;;;;;7.10;5.03;;;;;;;12.78;74.41;97551.88;5011134;28;20033;-68
2022/09/16 05:23:39;;;;;;;9.43;5.50;;;;;;;12.80;74.33;97549.59;5009733;28;20026;-68
2022/09/16 05:26:17;;;;;;;8.27;5.50;;;;;;;12.85;74.40;97554.09;5010401;28;20037;-68
2022/09/16 05:28:43;;;;;;;8.70;6.43;;;;;;;12.87;74.22;97554.56;5020897;28;20110;-68
2022/09/16 05:31:11;;;;;;;7.97;5.53;;;;;;;12.91;74.50;97551.94;5029748;28;20064;-68
2022/09/16 05:33:41;;;;;;;8.57;5.43;;;;;;;12.97;74.71;97550.59;5029617;28;20021;-68
2022/09/16 05:36:14;;;;;;;8.07;5.93;;;;;;;13.01;74.60;97542.50;5029827;28;20486;-68
2022/09/16 05:38:40;;;;;;;5.80;5.13;;;;;;;13.05;74.51;97538.72;5030079;28;20029;-68
2022/09/16 05:41:06;;;;;;;8.20;6.18;;;;;;;13.09;74.65;97534.16;5030128;28;20374;-68
2022/09/16 05:43:32;;;;;;;7.70;5.45;;;;;;;13.16;74.75;97532.81;5028975;28;20026;-68
2022/09/16 05:45:58;;;;;;;6.93;5.70;;;;;;;13.21;74.48;97521.63;5029815;28;20025;-68
2022/09/16 05:48:24;;;;;;;10.45;6.20;;;;;;;13.27;74.73;97531.25;5030522;28;20429;-68
2022/09/16 05:50:54;;;;;;;11.20;6.35;;;;;;;13.30;74.70;97532.53;5030664;28;20026;-68
2022/09/16 05:53:20;;;;;;;8.15;6.40;;;;;;;13.33;74.75;97546.44;5030969;28;20104;-68
2022/09/16 05:55:56;;;;;;;10.48;6.72;;;;;;;13.36;74.57;97545.75;5029565;28;20033;-68
2022/09/16 05:58:22;;;;;;;10.27;5.85;;;;;;;13.40;74.91;97559.69;5025812;28;20616;-68
2022/09/16 06:00:48;;;;;;;9.88;5.82;;;;;;;13.45;74.45;97564.19;5027578;28;20061;-68
2022/09/16 06:03:13;;;;;;;8.63;5.80;;;;;;;13.50;74.71;97566.75;5010836;28;20053;-68
2022/09/16 06:05:39;;;;;;;8.40;5.78;;;;;;;13.55;74.68;97566.53;5010304;28;20506;-68
2022/09/16 06:08:04;;;;;;;9.45;5.40;;;;;;;13.55;74.60;97572.84;5009692;28;20770;-68
2022/09/16 06:10:29;;;;;;;10.43;5.55;;;;;;;13.54;74.44;97560.22;5030104;28;20033;-68
2022/09/16 06:12:55;;;;;;;8.60;5.80;;;;;;;13.56;74.36;97559.88;5030344;28;20018;-68
2022/09/16 06:15:20;;;;;;;10.30;6.47;;;;;;;13.57;74.15;97558.75;5029846;28;20025;-68
2022/09/16 06:17:46;;;;;;;6.93;5.70;;;;;;;13.62;74.24;97552.22;5028127;28;20359;-68
2022/09/16 06:20:13;;;;;;;11.45;5.88;;;;;;;13.65;74.44;97543.28;5010188;28;20049;-68
2022/09/16 06:22:39;;;;;;;10.65;6.07;;;;;;;13.68;74.17;97543.38;5010635;28;20029;-68
2022/09/16 06:25:05;;;;;;;10.45;6.10;;;;;;;13.72;74.49;97545.47;5008578;28;20037;-68
2022/09/16 06:27:31;;;;;;;8.82;6.07;;;;;;;13.74;74.41;97537.66;5010172;28;20057;-68
2022/09/16 06:29:57;;;;;;;7.97;5.90;;;;;;;13.78;74.20;97550.44;5003696;28;20065;-68
2022/09/16 06:32:22;;;;;;;8.35;6.10;;;;;;;13.82;74.29;97539.53;5007397;28;20026;-68
2022/09/16 06:34:49;;;;;;;8.57;6.07;;;;;;;13.83;73.90;97546.66;5012148;28;20072;-68
2022/09/16 06:37:15;;;;;;;9.25;5.75;;;;;;;13.86;73.90;97539.69;5008078;28;20045;-68
2022/09/16 06:39:41;;;;;;;8.63;6.78;;;;;;;13.92;74.16;97541.84;5007714;28;20033;-68
2022/09/16 06:42:07;;;;;;;9.13;6.35;;;;;;;13.97;74.10;97535.31;5010967;28;20113;-68
2022/09/16 06:44:33;;;;;;;13.15;6.40;;;;;;;14.02;74.24;97532.34;5006532;28;20055;-68
2022/09/16 06:46:58;;;;;;;8.77;5.43;;;;;;;14.03;73.96;97533.94;5006635;28;20139;-68
2022/09/16 06:49:24;;;;;;;8.02;5.57;;;;;;;14.04;73.93;97538.31;5020000;28;20022;-68
2022/09/16 06:51:50;;;;;;;8.43;5.43;;;;;;;14.05;73.74;97536.38;5032615;28;20049;-68
2022/09/16 06:54:16;;;;;;;7.60;5.22;;;;;;;14.05;73.45;97537.16;5032927;28;20032;-67
2022/09/16 06:56:41;;;;;;;6.80;5.65;;;;;;;14.05;73.64;97553.72;5032817;28;20788;-68
2022/09/16 06:59:07;;;;;;;7.90;5.10;;;;;;;14.07;73.38;97553.34;5033428;28;20026;-68
2022/09/16 07:01:33;;;;;;;6.82;5.15;;;;;;;14.11;73.52;97554.28;5033083;28;20022;-68
2022/09/16 07:04:04;;;;;;;10.80;5.88;;;;;;;14.17;73.46;97555.69;5030264;28;20104;-68
2022/09/16 07:06:31;;;;;;;9.50;5.38;;;;;;;14.17;73.68;97555.69;5011558;28;20022;-68
2022/09/16 07:08:58;;;;;;;8.45;5.05;;;;;;;14.20;73.46;97563.28;5022294;28;20048;-69
2022/09/16 07:11:24;;;;;;;9.02;4.65;;;;;;;14.23;73.47;97573.63;5032553;28;20037;-68
2022/09/16 07:13:50;;;;;;;9.57;5.03;;;;;;;14.27;73.66;97576.50;5032161;28;20021;-70
2022/09/16 07:16:23;;;;;;;6.10;4.90;;;;;;;14.29;72.92;97571.44;5032458;28;20028;-68
2022/09/16 07:18:56;;;;;;;6.53;5.10;;;;;;;14.31;73.30;97573.88;5032414;28;20486;-69
2022/09/16 07:21:24;;;;;;;5.70;5.13;;;;;;;14.38;73.10;97572.16;5032445;28;20025;-68
2022/09/16 07:23:50;;;;;;;9.68;5.05;;;;;;;14.44;73.01;97575.50;5030490;28;20466;-68
2022/09/16 07:26:21;;;;;;;6.53;4.75;;;;;;;14.53;73.40;97583.66;5032232;28;20389;-68
2022/09/16 07:28:48;;;;;;;7.07;4.60;;;;;;;14.60;72.84;97572.84;5032598;28;20034;-69
2022/09/16 07:31:19;;;;;;;6.20;4.40;;;;;;;14.71;73.25;97578.75;5017850;28;20466;-69
2022/09/16 07:33:47;;;;;;;6.75;4.53;;;;;;;14.83;73.11;97561.38;5025715;28;20022;-68
2022/09/16 07:36:16;;;;;;;8.20;4.32;;;;;;;14.93;73.16;97576.66;5031978;28;20083;-69
2022/09/16 07:38:41;;;;;;;6.68;4.25;;;;;;;14.98;72.69;97577.25;5024279;28;20026;-68
2022/09/16 07:41:07;;;;;;;7.00;4.00;;;;;;;14.98;72.28;97580.00;5012998;28;20029;-69
2022/09/16 07:43:33;;;;;;;4.57;4.10;;;;;;;14.97;71.73;97583.91;5025742;28;20074;-68
2022/09/16 07:45:59;;;;;;;6.40;4.28;;;;;;;14.95;72.06;97579.88;5032042;28;20398;-68
2022/09/16 07:48:28;;;;;;;6.15;3.75;;;;;;;14.94;71.62;97583.78;5032621;28;20017;-69
2022/09/16 07:50:55;;;;;;;6.93;3.88;;;;;;;14.93;71.54;97582.16;5010441;28;20037;-69
2022/09/16 07:53:21;;;;;;;6.32;3.70;;;;;;;14.92;71.56;97586.91;5028657;28;20485;-68
2022/09/16 07:55:47;;;;;;;5.13;3.53;;;;;;;14.94;71.27;97589.31;5019010;28;20061;-68
2022/09/16 07:58:13;;;;;;;5.05;3.13;;;;;;;14.99;71.68;97589.06;5011645;28;20482;-68
2022/09/16 08:00:38;;;;;;;6.18;3.63;;;;;;;15.03;70.94;97582.53;5012404;28;20026;-69
2022/09/16 08:03:04;;;;;;;5.78;3.90;;;;;;;15.09;71.27;97587.78;5012105;28;20128;-69
2022/09/16 08:05:30;;;;;;;6.47;2.95;;;;;;;15.14;71.53;97588.38;5011546;28;20025;-69
2022/09/16 08:07:55;;;;;;;4.95;3.10;;;;;;;15.22;70.97;97585.81;5011967;28;20037;-69
2022/09/16 08:10:21;;;;;;;5.32;3.20;;;;;;;15.25;71.37;97593.41;5031380;28;20045;-69
2022/09/16 08:12:47;;;;;;;6.05;3.30;;;;;;;15.25;71.21;97596.19;5031862;28;20030;-68
2022/09/16 08:15:13;;;;;;;7.00;3.28;;;;;;;15.27;70.74;97596.66;5029869;28;20025;-68
2022/09/16 08:17:38;;;;;;;4.18;3.35;;;;;;;15.26;70.65;97604.09;5032003;28;20033;-68
2022/09/16 08:20:05;;;;;;;6.57;3.45;;;;;;;15.26;70.39;97603.31;5031144;28;20029;-69
2022/09/16 08:22:30;;;;;;;5.07;3.38;;;;;;;15.23;70.42;97592.97;5031072;28;20067;-69
2022/09/16 08:24:56;;;;;;;5.70;3.20;;;;;;;15.22;69.96;97591.34;5021912;28;20144;-69
2022/09/16 08:27:21;;;;;;;7.50;3.30;;;;;;;15.26;69.71;97589.50;5011475;28;20029;-68
2022/09/16 08:29:47;;;;;;;4.55;3.22;;;;;;;15.27;70.01;97588.34;5013939;28;20446;-68
2022/09/16 08:32:13;;;;;;;7.07;3.83;;;;;;;15.32;69.89;97586.16;5031360;28;20029;-69
2022/09/16 08:34:39;;;;;;;6.00;3.20;;;;;;;15.37;70.46;97592.59;5005321;28;20026;-68
2022/09/16 08:37:05;;;;;;;9.57;3.80;;;;;;;15.40;69.71;97594.66;5015023;28;20064;-69
2022/09/16 08:39:30;;;;;;;7.57;3.63;;;;;;;15.42;70.13;97590.38;5021658;28;20026;-69
2022/09/16 08:42:41;;;;;;;4.35;3.30;;;;;;;15.53;69.61;97582.38;5011752;28;20396;-69
2022/09/16 08:45:34;;;;;;;4.60;3.10;;;;;;;15.55;69.57;97579.28;5011021;28;20034;-69
2022/09/16 08:48:27;;;;;;;5.85;3.40;;;;;;;15.58;69.70;97584.13;5008529;28;20065;-69
2022/09/16 08:50:53;;;;;;;5.88;3.85;;;;;;;15.66;69.54;97591.47;5007072;28;20064;-70
2022/09/16 08:53:46;;;;;;;6.60;3.95;;;;;;;15.68;69.20;97583.63;5009790;28;20111;-70
2022/09/16 08:56:15;;;;;;;5.13;3.03;;;;;;;15.75;69.78;97585.78;5005947;28;20544;-71
2022/09/16 08:58:47;;;;;;;7.50;3.28;;;;;;;15.81;69.28;97586.31;5006822;28;20033;-70
2022/09/16 09:01:55;;;;;;;4.82;3.15;;;;;;;15.84;69.16;97582.84;5008310;28;20053;-70
2022/09/16 09:04:21;;;;;;;5.63;3.58;;;;;;;15.84;69.11;97586.44;4977516;28;20046;-69
2022/09/16 09:06:59;;;;;;;6.05;3.63;;;;;;;15.86;69.21;97597.13;5018430;28;20056;-70
2022/09/16 09:09:42;;;;;;;7.00;3.60;;;;;;;15.90;68.10;97601.63;5018372;28;20022;-69
2022/09/16 09:12:27;;;;;;;7.53;3.50;;;;;;;15.87;68.60;97599.59;5028483;28;20035;-70
2022/09/16 09:15:24;;;;;;;6.57;3.38;;;;;;;15.93;68.92;97602.88;5028167;28;20092;-70
2022/09/16 09:17:52;;;;;;;9.55;3.60;;;;;;;15.93;68.12;97600.13;5026862;28;20025;-70
2022/09/16 09:20:35;;;;;;;6.80;3.15;;;;;;;15.95;68.58;97597.81;5015014;28;20032;-70
2022/09/16 09:23:16;;;;;;;7.97;3.20;;;;;;;16.01;68.91;97582.56;5010425;28;20060;-69
2022/09/16 09:25:47;;;;;;;7.05;2.63;;;;;;;16.10;68.92;97578.84;5010221;28;20108;-70
2022/09/16 09:28:25;;;;;;;5.00;2.80;;;;;;;16.14;68.27;97583.28;5011436;28;20022;-70
2022/09/16 09:31:32;;;;;;;4.00;2.63;;;;;;;16.11;68.01;97591.47;5011014;28;20499;-70
2022/09/16 09:34:41;;;;;;;3.92;2.47;;;;;;;16.08;67.91;97584.72;4982241;28;20037;-70
2022/09/16 09:37:27;;;;;;;4.57;2.30;;;;;;;16.04;68.04;97573.56;5009432;28;20471;-70
2022/09/16 09:40:30;;;;;;;3.55;2.40;;;;;;;16.04;67.47;97575.50;5018091;28;20091;-70
2022/09/16 09:42:58;;;;;;;3.80;2.30;;;;;;;16.09;67.51;97580.00;5025962;28;20175;-70
2022/09/16 09:45:28;;;;;;;3.05;2.10;;;;;;;16.12;67.18;97580.09;5030126;28;20446;-70
2022/09/16 09:48:03;;;;;;;4.53;2.45;;;;;;;16.09;67.28;97580.00;5030352;28;20021;-69
2022/09/16 09:50:29;;;;;;;5.30;2.17;;;;;;;16.06;67.33;97587.84;5030300;28;20108;-69
2022/09/16 09:53:06;;;;;;;4.40;2.30;;;;;;;16.03;67.31;97576.66;5030269;28;20163;-70
2022/09/16 09:55:33;;;;;;;3.63;2.40;;;;;;;15.99;67.00;97578.53;5007211;28;20096;-70
2022/09/16 09:58:31;;;;;;;5.60;2.55;;;;;;;15.96;67.27;97574.53;5008958;28;20030;-70
2022/09/16 10:00:57;;;;;;;4.38;2.63;;;;;;;15.98;67.21;97574.97;5007810;28;20034;-70
2022/09/16 10:03:24;;;;;;;4.90;2.50;;;;;;;15.99;66.96;97579.34;5021462;28;20028;-71
2022/09/16 10:05:50;;;;;;;4.75;2.20;;;;;;;15.99;67.45;97581.28;5007509;28;20465;-70
2022/09/16 10:08:45;;;;;;;12.45;5.45;;;;;;;15.94;66.89;97587.91;5012023;28;20099;-70
2022/09/16 10:11:22;;;;;;;20.45;8.32;;;;;;;15.86;66.90;97584.16;5029397;28;20056;-70
2022/09/16 10:13:59;;;;;;;14.23;5.43;;;;;;;15.82;66.87;97579.63;5026958;28;20041;-70
2022/09/16 10:16:29;;;;;;;4.68;2.90;;;;;;;15.77;66.82;97573.19;5029084;28;20040;-70
2022/09/16 10:19:07;;;;;;;4.15;2.50;;;;;;;15.80;67.11;97579.19;5028220;28;20032;-69
2022/09/16 10:21:48;;;;;;;5.30;3.08;;;;;;;15.76;67.39;97579.88;5032433;28;20029;-70
2022/09/16 10:24:41;;;;;;;4.35;2.75;;;;;;;15.71;67.86;97574.59;5032896;28;20025;-69
2022/09/16 10:27:21;;;;;;;5.40;2.92;;;;;;;15.68;67.95;97578.09;5022470;28;20041;-69
2022/09/16 10:30:01;;;;;;;4.75;2.88;;;;;;;15.66;68.22;97572.09;5029277;28;20486;-71
2022/09/16 10:32:27;;;;;;;5.68;2.83;;;;;;;15.67;68.12;97573.72;5033773;28;20033;-69
2022/09/16 10:34:53;;;;;;;4.15;3.10;;;;;;;15.67;68.34;97572.91;5031951;28;20026;-69
2022/09/16 10:37:19;;;;;;;5.47;3.35;;;;;;;15.61;68.23;97567.63;5031933;28;20451;-69
2022/09/16 10:39:54;;;;;;;5.28;3.25;;;;;;;15.62;68.32;97568.44;5033079;28;20021;-69
2022/09/16 10:42:27;;;;;;;4.88;2.70;;;;;;;15.62;68.50;97557.38;5033362;28;20048;-70
2022/09/16 10:45:01;;;;;;;4.03;2.55;;;;;;;15.60;68.57;97563.25;5019521;28;20037;-70
2022/09/16 10:47:32;;;;;;;6.50;4.10;;;;;;;15.61;68.36;97567.63;5012399;28;20060;-69
2022/09/16 10:50:01;;;;;;;7.57;3.58;;;;;;;15.62;68.44;97565.69;5011916;28;20053;-69
2022/09/16 10:52:30;;;;;;;6.13;3.65;;;;;;;15.65;68.59;97567.72;5023556;28;20241;-69
2022/09/16 10:54:56;;;;;;;6.55;3.65;;;;;;;15.69;68.30;97563.09;5033395;28;20033;-70
2022/09/16 10:57:31;;;;;;;6.93;5.03;;;;;;;15.76;68.62;97563.28;5033240;28;20551;-70
2022/09/16 11:00:18;;;;;;;10.55;5.80;;;;;;;15.87;68.76;97560.06;5028809;28;20501;-69
2022/09/16 11:03:02;;;;;;;5.18;3.97;;;;;;;15.98;68.89;97557.56;5033486;28;20052;-70
2022/09/16 11:05:59;;;;;;;5.35;3.42;;;;;;;16.05;69.05;97552.22;5032895;28;20029;-69
2022/09/16 11:09:08;;;;;;;5.50;3.30;;;;;;;16.18;68.78;97545.47;5024575;28;20509;-69
2022/09/16 11:11:40;;;;;;;4.72;2.42;;;;;;;16.26;68.68;97546.44;5030828;28;20032;-69
2022/09/16 11:14:26;;;;;;;2.58;2.05;;;;;;;16.37;68.28;97544.75;5026331;28;20044;-70
2022/09/16 11:17:22;;;;;;;2.58;1.90;;;;;;;16.51;68.14;97547.06;5031962;28;20082;-70
2022/09/16 11:20:26;;;;;;;2.85;2.33;;;;;;;16.72;67.75;97545.19;5019403;28;20491;-69
2022/09/16 11:23:18;;;;;;;3.83;2.10;;;;;;;16.87;67.22;97529.69;5013425;28;20096;-69
2022/09/16 11:25:50;;;;;;;2.58;1.80;;;;;;;16.98;65.69;97524.41;5011798;28;20083;-68
2022/09/16 11:28:40;;;;;;;2.92;1.77;;;;;;;17.02;65.74;97519.75;5012613;28;20022;-69
2022/09/16 11:31:24;;;;;;;4.07;2.50;;;;;;;17.07;65.57;97523.06;5012635;28;20025;-69
2022/09/16 11:34:11;;;;;;;2.83;2.00;;;;;;;17.12;65.66;97524.72;5011995;28;20080;-69
2022/09/16 11:36:54;;;;;;;4.75;2.08;;;;;;;17.18;65.53;97522.47;5012099;28;20137;-69
2022/09/16 11:39:34;;;;;;;4.13;2.60;;;;;;;17.22;65.68;97520.59;5012970;28;20030;-69
2022/09/16 11:42:12;;;;;;;5.22;2.67;;;;;;;17.30;65.29;97516.81;5012422;28;20029;-69
2022/09/16 11:44:44;;;;;;;2.78;2.20;;;;;;;17.39;65.32;97517.38;5012558;28;20030;-69
2022/09/16 11:47:46;;;;;;;2.25;2.00;;;;;;;17.43;64.63;97520.22;5007457;28;20465;-68
2022/09/16 11:50:21;;;;;;;3.90;1.77;;;;;;;17.46;64.09;97511.19;5010118;28;20509;-69
2022/09/16 11:52:52;;;;;;;4.72;2.30;;;;;;;17.47;63.60;97512.00;5010873;28;20026;-70
2022/09/16 11:56:06;;;;;;;8.27;4.93;;;;;;;17.41;63.81;97509.50;5015284;28;20034;-69
2022/09/16 11:58:47;;;;;;;5.22;3.42;;;;;;;17.37;63.24;97507.81;5015734;28;20061;-70